Latest Coastal Weather Observations for Gunn Point

IDD60701

Issued at 10:25 am CST Thursday 24 April 2014 (issued every 10 minutes, with the page automatically refreshed every 10 minutes)

About coastal observations | Map of coastal stations | Coastal observations for NT | Marine services | Other Formats
Station Details ID: 014023 Name: GUNN POINT Lat: -12.25 Lon: 131.04 Height: 25.0 m
Data from the previous 72 hours. | See also: Recent months for locations in Northern Territory
Date/Time
CST
Temp

°C
Wind Pressure Rain
since 9am
mm
Weather Cloud Vis
km
Sea
Height
m
Swell
Dir
 
Speed
knots
Gust
knots
hPa Trend Height
m
Period
s
Dir
24/10:00am 30.3 SSE 7 10 1009.9 - 0.0 - - - - - - -
24/09:30am 28.9 SSE 5 8 1009.5 - 0.0 - - - - - - -
24/09:00am 27.5 SE 3 5 1009.1 - 0.0 - - - - - - -
24/08:30am 26.6 SE 2 5 1008.8 - 0.0 - - - - - - -
24/08:00am 25.1 SE 2 3 1008.6 - 0.0 - - - - - - -
24/07:30am 24.1 SE 1 2 1008.0 - 0.0 - - - - - - -
24/07:00am 23.9 SE 1 3 1007.4 - 0.0 - - - - - - -
24/06:30am 24.0 SE 3 4 1006.9 - 0.0 - - - - - - -
24/06:00am 23.1 CALM 0 0 1006.6 - 0.0 - - - - - - -
24/05:30am 23.3 CALM 0 0 1006.4 - 0.0 - - - - - - -
24/05:00am 23.6 CALM 0 0 1006.6 - 0.0 - - - - - - -
24/04:30am 24.1 E 2 3 1006.4 - 0.0 - - - - - - -
24/04:00am 24.3 E 1 2 1006.4 - 0.0 - - - - - - -
24/03:30am 24.5 E 1 2 1006.3 - 0.0 - - - - - - -
24/03:00am 24.9 CALM 0 0 1006.4 - 0.0 - - - - - - -
24/02:30am 25.4 ESE 1 2 1006.6 - 0.0 - - - - - - -
24/02:00am 25.8 E 2 4 1007.1 - 0.0 - - - - - - -
24/01:30am 26.2 E 1 3 1007.3 - 0.0 - - - - - - -
24/01:00am 26.2 ESE 3 5 1007.7 - 0.0 - - - - - - -
24/12:30am 26.4 ESE 3 5 1007.8 - 0.0 - - - - - - -
24/12:00am 26.4 ESE 4 8 1007.9 - 0.0 - - - - - - -
 
Date/Time
CST
Temp

°C
Wind Pressure Rain
since 9am
mm
Weather Cloud Vis
km
Sea
Height
m
Swell
Dir
 
Speed
knots
Gust
knots
hPa Trend Height
m
Period
s
Dir
23/11:30pm 26.4 CALM 0 0 1008.0 - 0.0 - - - - - - -
23/11:00pm 26.6 CALM 0 2 1008.4 - 0.0 - - - - - - -
23/10:30pm 26.9 W 1 3 1008.5 - 0.0 - - - - - - -
23/10:00pm 26.3 CALM 0 0 1008.8 - 0.0 - - - - - - -
23/09:30pm 26.6 CALM 0 0 1008.6 - 0.0 - - - - - - -
23/09:00pm 26.4 CALM 0 0 1008.3 - 0.0 - - - - - - -
23/08:30pm 26.5 CALM 0 0 1007.3 - 0.0 - - - - - - -
23/08:00pm 26.6 CALM 0 0 1007.2 - 0.0 - - - - - - -
23/07:30pm 27.0 NNE 1 2 1006.9 - 0.0 - - - - - - -
23/07:00pm 28.0 NNW 1 2 1006.8 - 0.0 - - - - - - -
23/06:30pm 28.9 CALM 0 1 1006.4 - 0.0 - - - - - - -
23/06:00pm 30.1 N 3 6 1005.9 - 0.0 - - - - - - -
23/05:30pm 30.8 N 3 6 1005.4 - 0.0 - - - - - - -
23/05:00pm 30.3 NNE 3 5 1005.3 - 0.0 - - - - - - -
23/04:30pm 31.9 NE 4 6 1004.9 - 0.0 - - - - - - -
23/04:00pm 33.2 NE 5 8 1005.2 - 0.0 - - - - - - -
23/03:30pm 33.5 NE 4 6 1005.1 - 0.0 - - - - - - -
23/03:00pm 33.7 SE 3 6 1005.4 - 0.0 - - - - - - -
23/02:30pm 34.0 SE 5 9 1005.9 - 0.0 - - - - - - -
23/02:00pm 33.7 SSE 6 11 1006.6 - 0.0 - - - - - - -
23/01:30pm 33.4 SE 4 8 1006.7 - 0.0 - - - - - - -
23/01:00pm 33.8 ESE 5 8 1007.1 - 0.0 - - - - - - -
23/12:30pm 33.3 SE 6 11 1007.2 - 0.0 - - - - - - -
23/12:00pm 32.9 SE 6 11 1007.6 - 0.0 - - - - - - -
23/11:30am 32.5 SSE 6 12 1008.2 - 0.0 - - - - - - -
23/11:00am 31.9 S 6 10 1009.0 - 0.0 - - - - - - -
23/10:30am 31.0 SSE 5 9 1009.1 - 0.0 - - - - - - -
23/10:00am 29.9 SSE 7 10 1009.5 - 0.0 - - - - - - -
23/09:30am 28.9 SSE 6 9 1009.4 - 0.0 - - - - - - -
23/09:00am 27.9 SSE 4 8 1009.5 - 0.0 - - - - - - -
23/08:30am 26.2 SSE 4 6 1009.4 - 0.0 - - - - - - -
23/08:00am 25.0 SE 1 4 1009.6 - 0.0 - - - - - - -
23/07:30am 23.4 SSE 2 2 1009.1 - 0.0 - - - - - - -
23/07:00am 22.2 SE 1 2 1009.1 - 0.0 - - - - - - -
23/06:30am 22.3 SE 2 3 1008.8 - 0.0 - - - - - - -
23/06:00am 22.4 SSE 3 3 1008.6 - 0.0 - - - - - - -
23/05:30am 22.8 ESE 2 4 1008.5 - 0.0 - - - - - - -
23/05:00am 22.8 ESE 2 3 1008.4 - 0.0 - - - - - - -
23/04:30am 22.8 SE 2 3 1008.2 - 0.0 - - - - - - -
23/04:00am 23.0 ESE 2 4 1008.1 - 0.0 - - - - - - -
23/03:30am 23.3 ESE 2 2 1007.8 - 0.0 - - - - - - -
23/03:00am 24.0 ESE 2 4 1007.8 - 0.0 - - - - - - -
23/02:30am 24.4 ESE 2 3 1007.7 - 0.0 - - - - - - -
23/02:00am 24.9 ESE 3 4 1008.2 - 0.0 - - - - - - -
23/01:30am 23.9 SE 3 4 1008.4 - 0.0 - - - - - - -
23/01:00am 24.1 SE 3 4 1009.2 - 0.0 - - - - - - -
23/12:30am 24.3 CALM 0 2 1009.4 - 0.0 - - - - - - -
23/12:00am 24.7 CALM 0 0 1009.7 - 0.0 - - - - - - -
 
Date/Time
CST
Temp

°C
Wind Pressure Rain
since 9am
mm
Weather Cloud Vis
km
Sea
Height
m
Swell
Dir
 
Speed
knots
Gust
knots
hPa Trend Height
m
Period
s
Dir
22/11:30pm 25.5 CALM 0 0 1009.8 - 0.0 - - - - - - -
22/11:00pm 25.4 CALM 0 0 1010.3 - 0.0 - - - - - - -
22/10:30pm 25.6 CALM 0 0 1010.1 - 0.0 - - - - - - -
22/10:00pm 25.5 CALM 0 0 1010.1 - 0.0 - - - - - - -
22/09:30pm 26.0 CALM 0 0 1009.5 - 0.0 - - - - - - -
22/09:00pm 26.6 CALM 0 0 1008.9 - 0.0 - - - - - - -
22/08:30pm 27.3 NE 2 4 1009.0 - 0.0 - - - - - - -
22/08:00pm 26.7 NE 1 2 1009.0 - 0.0 - - - - - - -
22/07:30pm 27.0 NNE 2 5 1008.4 - 0.0 - - - - - - -
22/07:00pm 27.3 CALM 0 0 1008.3 - 0.0 - - - - - - -
22/06:30pm 28.7 CALM 0 0 1007.6 - 0.0 - - - - - - -
22/06:00pm 32.1 CALM 0 1 1007.3 - 0.0 - - - - - - -
22/05:30pm 32.8 S 2 3 1007.1 - 0.0 - - - - - - -
22/05:00pm 32.5 SE 4 6 1007.1 - 0.0 - - - - - - -
22/04:30pm 33.1 SSE 5 8 1006.6 - 0.0 - - - - - - -
22/04:00pm 33.1 SE 4 7 1006.7 - 0.0 - - - - - - -
22/03:30pm 32.7 SSE 6 13 1006.4 - 0.0 - - - - - - -
22/03:00pm 33.0 SE 5 9 1006.7 - 0.0 - - - - - - -
22/02:30pm 32.6 SE 8 13 1007.1 - 0.0 - - - - - - -
22/02:00pm 32.9 SE 8 13 1007.7 - 0.0 - - - - - - -
22/01:30pm 32.8 S 8 14 1008.1 - 0.0 - - - - - - -
22/01:00pm 33.0 ESE 6 12 1008.8 - 0.0 - - - - - - -
22/12:30pm 32.9 SE 7 13 1009.2 - 0.0 - - - - - - -
22/12:00pm 32.5 ESE 8 14 1009.5 - 0.0 - - - - - - -
22/11:30am 32.6 E 6 11 1010.2 - 0.0 - - - - - - -
22/11:00am 32.0 E 6 10 1011.0 - 0.0 - - - - - - -
22/10:30am 31.1 E 5 10 1011.3 - 0.0 - - - - - - -
22/10:00am 30.3 ESE 5 8 1011.6 - 0.0 - - - - - - -
22/09:30am 29.2 E 6 11 1011.3 - 0.0 - - - - - - -
22/09:00am 28.6 ESE 4 8 1011.3 - 0.0 - - - - - - -
22/08:30am 26.8 ESE 5 8 1011.1 - 0.0 - - - - - - -
22/08:00am 24.9 ESE 2 4 1011.2 - 0.0 - - - - - - -
22/07:30am 23.8 ESE 2 3 1010.5 - 0.0 - - - - - - -
22/07:00am 22.2 SE 2 3 1010.3 - 0.0 - - - - - - -
22/06:30am 22.3 CALM 0 0 1009.7 - 0.0 - - - - - - -
22/06:00am 22.5 CALM 0 0 1009.5 - 0.0 - - - - - - -
22/05:30am 22.6 CALM 0 0 1009.4 - 0.0 - - - - - - -
22/05:00am 22.8 CALM 0 0 1009.3 - 0.0 - - - - - - -
22/04:30am 22.6 CALM 0 1 1009.1 - 0.0 - - - - - - -
22/04:00am 22.7 CALM 0 0 1009.4 - 0.0 - - - - - - -
22/03:30am 23.0 CALM 0 1 1009.2 - 0.0 - - - - - - -
22/03:00am 22.9 CALM 0 0 1009.3 - 0.0 - - - - - - -
22/02:30am 23.2 CALM 0 0 1009.4 - 0.0 - - - - - - -
22/02:00am 23.4 E 1 2 1009.8 - 0.0 - - - - - - -
22/01:30am 23.3 SSE 2 3 1009.9 - 0.0 - - - - - - -
22/01:00am 23.2 CALM 0 0 1010.2 - 0.0 - - - - - - -
22/12:30am 23.5 SSE 2 2 1010.3 - 0.0 - - - - - - -
22/12:00am 23.6 CALM 0 2 1010.6 - 0.0 - - - - - - -
 
Date/Time
CST
Temp

°C
Wind Pressure Rain
since 9am
mm
Weather Cloud Vis
km
Sea
Height
m
Swell
Dir
 
Speed
knots
Gust
knots
hPa Trend Height
m
Period
s
Dir
21/11:30pm 23.3 CALM 0 0 1010.5 - 0.0 - - - - - - -
21/11:00pm 23.3 CALM 0 0 1010.7 - 0.0 - - - - - - -
21/10:30pm 23.4 CALM 0 0 1010.2 - 0.0 - - - - - - -
21/10:00pm 23.6 CALM 0 0 1010.4 - 0.0 - - - - - - -
21/09:30pm 23.7 CALM 0 0 1010.2 - 0.0 - - - - - - -
21/09:00pm 24.1 CALM 0 0 1010.1 - 0.0 - - - - - - -
21/08:30pm 24.4 NE 1 2 1009.8 - 0.0 - - - - - - -
21/08:00pm 24.6 CALM 0 3 1009.8 - 0.0 - - - - - - -
21/07:30pm 24.9 NE 1 3 1009.6 - 0.0 - - - - - - -
21/07:00pm 25.6 CALM 0 0 1009.6 - 0.0 - - - - - - -
21/06:30pm 26.9 CALM 0 0 1009.3 - 0.0 - - - - - - -
21/06:00pm 28.5 NE 2 2 1009.1 - 0.0 - - - - - - -
21/05:30pm 29.5 ENE 2 4 1008.9 - 0.0 - - - - - - -
21/05:00pm 30.4 NE 4 7 1008.7 - 0.0 - - - - - - -
21/04:30pm 31.7 ENE 5 9 1008.4 - 0.0 - - - - - - -
21/04:00pm 32.1 ENE 4 8 1008.7 - 0.0 - - - - - - -
21/03:30pm 32.3 ENE 6 10 1008.4 - 0.0 - - - - - - -
21/03:00pm 32.5 E 5 9 1008.3 - 0.0 - - - - - - -
21/02:30pm 32.0 E 5 10 1008.5 - 0.0 - - - - - - -
21/02:00pm 31.7 ENE 7 12 1009.2 - 0.0 - - - - - - -
21/01:30pm 31.3 ENE 8 14 1009.3 - 0.0 - - - - - - -
21/01:00pm 31.1 E 7 13 1009.7 - 0.0 - - - - - - -
21/12:30pm 31.1 E 8 14 1009.7 - 0.0 - - - - - - -
21/12:00pm 30.3 E 9 16 1010.1 - 0.0 - - - - - - -
21/11:30am 30.9 E 8 17 1010.4 - 0.0 - - - - - - -
21/11:00am 30.5 E 9 16 1010.9 - 0.0 - - - - - - -
21/10:30am 29.9 E 7 16 1010.9 - 0.0 - - - - - - -

Other Formats:

Comma delimited format used in spreadsheet applications
http://www.bom.gov.au/fwo/IDD60701/IDD60701.99501.axf

JavaScript Object Notation format (JSON) in row-major order
http://www.bom.gov.au/fwo/IDD60701/IDD60701.99501.json